createdAt,value
2019-04-21T00:01:09.144Z,12.83
2019-04-21T00:03:47.948Z,12.67
2019-04-21T00:06:36.805Z,11.77
2019-04-21T00:09:11.487Z,12.40
2019-04-21T00:11:40.874Z,12.17
2019-04-21T00:14:03.726Z,12.50
2019-04-21T00:16:33.078Z,11.73
2019-04-21T00:19:23.009Z,12.03
2019-04-21T00:21:56.605Z,12.00
2019-04-21T00:24:34.707Z,11.50
2019-04-21T00:27:10.934Z,13.17
2019-04-21T00:29:45.610Z,12.60
2019-04-21T00:32:10.152Z,13.00
2019-04-21T00:34:30.188Z,11.90
2019-04-21T00:37:12.305Z,12.83
2019-04-21T00:42:22.811Z,12.03
2019-04-21T00:44:56.561Z,12.90
2019-04-21T00:47:32.480Z,12.93
2019-04-21T00:50:03.099Z,12.30
2019-04-21T00:57:58.539Z,12.87
2019-04-21T01:00:27.812Z,12.80
2019-04-21T01:02:57.992Z,12.87
2019-04-21T01:05:28.338Z,12.70
2019-04-21T01:07:58.345Z,13.77
2019-04-21T01:10:24.536Z,13.87
2019-04-21T01:13:09.581Z,13.50
2019-04-21T01:15:45.031Z,13.40
2019-04-21T01:18:12.919Z,13.33
2019-04-21T01:20:20.175Z,13.03
2019-04-21T01:22:51.514Z,12.90
2019-04-21T01:25:30.240Z,13.40
2019-04-21T01:28:09.890Z,13.53
2019-04-21T01:30:44.899Z,12.70
2019-04-21T01:33:21.386Z,13.57
2019-04-21T01:35:49.413Z,13.30
2019-04-21T01:38:28.889Z,13.23
2019-04-21T01:40:52.935Z,13.67
2019-04-21T01:43:23.415Z,12.70
2019-04-21T01:45:53.541Z,13.97
2019-04-21T01:48:28.995Z,13.43
2019-04-21T01:50:55.528Z,14.13
2019-04-21T01:53:48.628Z,13.60
2019-04-21T01:56:38.698Z,13.50
2019-04-21T01:59:03.748Z,13.77
2019-04-21T02:01:45.819Z,13.90
2019-04-21T02:04:24.445Z,14.10
2019-04-21T02:06:50.464Z,14.37
2019-04-21T02:09:18.911Z,14.13
2019-04-21T02:11:56.161Z,14.03
2019-04-21T02:14:36.232Z,13.50
2019-04-21T02:16:59.502Z,14.57
2019-04-21T02:19:23.622Z,13.80
2019-04-21T02:21:54.289Z,14.23
2019-04-21T02:24:42.670Z,14.37
2019-04-21T02:27:06.809Z,14.33
2019-04-21T02:29:45.627Z,14.87
2019-04-21T02:35:04.048Z,14.50
2019-04-21T02:40:04.935Z,14.63
2019-04-21T02:42:32.451Z,13.97
2019-04-21T02:45:00.422Z,15.03
2019-04-21T02:50:11.304Z,14.70
2019-04-21T02:55:06.324Z,14.67
2019-04-21T02:57:47.862Z,15.30
2019-04-21T03:00:18.616Z,14.93
2019-04-21T03:02:58.634Z,14.13
2019-04-21T03:05:53.036Z,14.97
2019-04-21T03:08:38.560Z,14.83
2019-04-21T03:10:59.233Z,14.50
2019-04-21T03:16:09.787Z,15.30
2019-04-21T03:21:10.861Z,14.23
2019-04-21T03:23:52.297Z,14.73
2019-04-21T03:28:37.104Z,14.30
2019-04-21T03:34:15.644Z,14.40
2019-04-21T03:38:43.257Z,16.40
2019-04-21T03:41:20.424Z,17.03
2019-04-21T03:43:52.230Z,17.40
2019-04-21T03:51:25.853Z,16.63
2019-04-21T03:54:00.061Z,16.40
2019-04-21T03:56:52.260Z,16.90
2019-04-21T04:01:58.089Z,16.67
2019-04-21T04:12:57.219Z,17.10
2019-04-21T04:15:43.004Z,16.73
2019-04-21T04:18:07.704Z,16.20
2019-04-21T04:20:39.958Z,16.10
2019-04-21T04:23:08.000Z,16.10
2019-04-21T04:25:43.314Z,16.50
2019-04-21T04:28:19.108Z,15.97
2019-04-21T04:30:45.954Z,17.60
2019-04-21T04:33:29.949Z,17.73
2019-04-21T04:41:28.926Z,16.67
2019-04-21T04:43:54.899Z,15.97
2019-04-21T04:46:26.954Z,16.67
2019-04-21T04:51:43.883Z,16.87
2019-04-21T04:56:31.144Z,16.13
2019-04-21T04:59:29.975Z,16.13
2019-04-21T05:06:46.064Z,17.63
2019-04-21T05:11:50.088Z,17.83
2019-04-21T05:14:18.247Z,17.00
2019-04-21T05:19:20.959Z,16.80
2019-04-21T05:22:14.126Z,17.90
2019-04-21T05:24:18.908Z,17.47
2019-04-21T05:26:48.014Z,17.37
2019-04-21T05:29:20.461Z,16.20
2019-04-21T05:32:13.632Z,16.57
2019-04-21T05:34:50.776Z,16.43
2019-04-21T05:37:31.703Z,17.00
2019-04-21T05:40:00.673Z,16.60
2019-04-21T05:42:35.400Z,16.30
2019-04-21T05:45:21.084Z,16.43
2019-04-21T05:48:11.725Z,16.80
2019-04-21T05:50:34.973Z,15.77
2019-04-21T05:53:09.766Z,14.40
2019-04-21T05:55:46.895Z,13.97
2019-04-21T05:58:14.506Z,14.23
2019-04-21T06:01:16.661Z,14.80
2019-04-21T06:03:34.292Z,14.53
2019-04-21T06:06:12.175Z,14.50
2019-04-21T06:08:36.183Z,14.47
2019-04-21T06:11:10.372Z,14.10
2019-04-21T06:16:30.314Z,13.77
2019-04-21T06:18:48.837Z,13.80
2019-04-21T06:21:16.591Z,13.60
2019-04-21T06:23:45.025Z,13.90
2019-04-21T06:28:54.882Z,13.20
2019-04-21T06:33:58.799Z,13.70
2019-04-21T06:41:48.415Z,14.07
2019-04-21T06:44:22.716Z,13.60
2019-04-21T06:46:48.889Z,13.57
2019-04-21T06:49:27.400Z,13.70
2019-04-21T06:52:11.404Z,14.40
2019-04-21T06:54:34.171Z,14.07
2019-04-21T06:57:03.307Z,14.33
2019-04-21T06:59:35.162Z,14.70
2019-04-21T07:02:28.233Z,14.50
2019-04-21T07:04:57.595Z,13.77
2019-04-21T07:07:22.707Z,14.63
2019-04-21T07:09:57.183Z,15.40
2019-04-21T07:12:21.990Z,15.00
2019-04-21T07:14:59.568Z,14.17
2019-04-21T07:17:27.908Z,14.47
2019-04-21T07:20:07.238Z,15.60
2019-04-21T07:22:37.119Z,15.80
2019-04-21T07:25:10.538Z,15.50
2019-04-21T07:27:43.413Z,15.90
2019-04-21T07:30:14.806Z,15.07
2019-04-21T07:32:51.332Z,15.40
2019-04-21T07:35:18.924Z,16.10
2019-04-21T07:37:50.806Z,16.33
2019-04-21T07:40:17.715Z,16.23
2019-04-21T07:42:49.799Z,16.77
2019-04-21T07:45:16.587Z,16.30
2019-04-21T07:48:06.564Z,16.10
2019-04-21T07:50:47.310Z,15.70
2019-04-21T07:53:27.708Z,16.03
2019-04-21T07:55:42.416Z,16.43
2019-04-21T07:58:38.682Z,15.83
2019-04-21T08:01:09.504Z,17.23
2019-04-21T08:03:38.867Z,16.30
2019-04-21T08:06:28.383Z,16.57
2019-04-21T08:08:42.172Z,17.60
2019-04-21T08:11:09.594Z,16.60
2019-04-21T08:13:51.791Z,17.27
2019-04-21T08:16:22.782Z,17.23
2019-04-21T08:18:52.506Z,17.30
2019-04-21T08:21:24.618Z,16.10
2019-04-21T08:23:55.342Z,15.80
2019-04-21T08:26:31.176Z,16.70
2019-04-21T08:29:01.337Z,17.50
2019-04-21T08:31:42.647Z,16.20
2019-04-21T08:34:07.688Z,15.30
2019-04-21T08:36:33.944Z,16.97
2019-04-21T08:39:07.323Z,17.07
2019-04-21T08:41:38.584Z,16.43
2019-04-21T08:44:10.552Z,15.63
2019-04-21T08:46:49.209Z,16.50
2019-04-21T08:49:13.354Z,17.30
2019-04-21T08:51:48.446Z,16.20
2019-04-21T08:54:23.485Z,16.23
2019-04-21T08:57:01.152Z,16.10
2019-04-21T08:59:45.929Z,18.00
2019-04-21T09:02:35.364Z,16.00
2019-04-21T09:05:04.711Z,16.23
2019-04-21T09:07:39.539Z,16.50
2019-04-21T09:10:09.699Z,15.97
2019-04-21T09:12:43.247Z,15.50
2019-04-21T09:15:14.067Z,16.13
2019-04-21T09:17:41.133Z,16.60
2019-04-21T09:20:40.175Z,16.43
2019-04-21T09:22:54.300Z,16.10
2019-04-21T09:25:36.001Z,16.50
2019-04-21T09:27:55.452Z,15.53
2019-04-21T09:30:11.164Z,17.30
2019-04-21T09:32:42.439Z,15.87
2019-04-21T09:35:18.407Z,15.70
2019-04-21T09:37:55.283Z,15.93
2019-04-21T09:40:26.154Z,16.13
2019-04-21T09:42:58.686Z,15.77
2019-04-21T09:45:24.443Z,15.23
2019-04-21T09:48:02.684Z,16.00
2019-04-21T09:50:27.182Z,16.07
2019-04-21T09:53:03.892Z,16.53
2019-04-21T09:55:36.434Z,16.87
2019-04-21T09:58:12.661Z,14.70
2019-04-21T10:00:46.393Z,15.70
2019-04-21T10:03:08.775Z,15.17
2019-04-21T10:05:38.427Z,15.77
2019-04-21T10:08:10.327Z,15.80
2019-04-21T10:10:40.711Z,14.37
2019-04-21T10:13:11.090Z,15.13
2019-04-21T10:15:41.950Z,14.53
2019-04-21T10:18:17.273Z,14.00
2019-04-21T10:20:47.591Z,15.20
2019-04-21T10:23:17.891Z,15.60
2019-04-21T10:25:48.497Z,14.20
2019-04-21T10:28:19.102Z,15.10
2019-04-21T10:30:50.852Z,14.97
2019-04-21T10:33:22.032Z,13.87
2019-04-21T10:35:53.079Z,14.53
2019-04-21T10:38:34.352Z,13.77
2019-04-21T10:40:57.034Z,14.10
2019-04-21T10:43:29.251Z,13.53
2019-04-21T10:46:01.089Z,14.40
2019-04-21T10:48:34.376Z,14.57
2019-04-21T10:51:03.339Z,14.43
2019-04-21T10:53:36.807Z,15.73
2019-04-21T10:56:14.530Z,15.37
2019-04-21T10:58:42.277Z,15.67
2019-04-21T11:01:14.775Z,15.73
2019-04-21T11:03:58.798Z,14.83
2019-04-21T11:06:28.961Z,13.97
2019-04-21T11:09:01.415Z,15.23
2019-04-21T11:11:32.087Z,13.93
2019-04-21T11:14:02.576Z,14.60
2019-04-21T11:16:33.269Z,12.93
2019-04-21T11:19:04.087Z,13.10
2019-04-21T11:21:36.562Z,13.03
2019-04-21T11:24:08.197Z,16.60
2019-04-21T11:26:38.431Z,15.10
2019-04-21T11:29:08.795Z,16.13
2019-04-21T11:31:39.039Z,14.87
2019-04-21T11:34:09.639Z,13.93
2019-04-21T11:36:40.508Z,14.27
2019-04-21T11:39:39.300Z,13.60
2019-04-21T11:41:58.027Z,13.60
2019-04-21T11:44:29.073Z,13.10
2019-04-21T11:47:00.562Z,13.70
2019-04-21T11:49:32.485Z,13.50
2019-04-21T11:52:04.810Z,12.97
2019-04-21T11:54:37.057Z,13.57
2019-04-21T11:57:14.029Z,13.20
2019-04-21T11:59:39.704Z,13.23
2019-04-21T12:02:10.207Z,14.60
2019-04-21T12:04:41.262Z,14.10
2019-04-21T12:07:11.553Z,13.60
2019-04-21T12:09:41.723Z,12.97
2019-04-21T12:12:11.966Z,11.50
2019-04-21T12:14:42.241Z,12.10
2019-04-21T12:17:14.142Z,11.00
2019-04-21T12:19:46.086Z,11.87
2019-04-21T12:22:22.258Z,11.20
2019-04-21T12:24:49.709Z,10.63
2019-04-21T12:27:20.414Z,11.73
2019-04-21T12:29:51.680Z,10.90
2019-04-21T12:32:46.296Z,12.17
2019-04-21T12:35:17.687Z,12.30
2019-04-21T12:37:49.007Z,10.97
2019-04-21T12:40:20.858Z,11.10
2019-04-21T12:42:52.276Z,10.60
2019-04-21T12:45:24.066Z,10.90
2019-04-21T12:47:55.743Z,11.55
2019-04-21T12:50:27.773Z,11.97
2019-04-21T12:52:58.350Z,10.40
2019-04-21T12:55:34.129Z,10.13
2019-04-21T12:58:03.571Z,11.50
2019-04-21T13:00:34.066Z,12.30
2019-04-21T13:03:05.722Z,11.37
2019-04-21T13:05:36.333Z,12.40
2019-04-21T13:08:07.225Z,12.57
2019-04-21T13:10:38.311Z,12.15
2019-04-21T13:13:08.490Z,11.63
2019-04-21T13:15:39.799Z,12.47
2019-04-21T13:18:10.207Z,11.47
2019-04-21T13:20:42.299Z,10.77
2019-04-21T13:23:13.854Z,10.68
2019-04-21T13:25:47.731Z,10.13
2019-04-21T13:28:18.722Z,10.20
2019-04-21T13:30:49.055Z,9.30
2019-04-21T13:33:20.872Z,10.37
2019-04-21T13:35:52.991Z,9.50
2019-04-21T13:38:31.029Z,9.48
2019-04-21T13:41:24.710Z,9.28
2019-04-21T13:43:41.151Z,8.25
2019-04-21T13:46:12.075Z,9.57
2019-04-21T13:48:42.581Z,8.93
2019-04-21T13:51:13.327Z,8.90
2019-04-21T13:53:43.990Z,8.40
2019-04-21T13:56:14.414Z,9.20
2019-04-21T13:58:44.671Z,9.68
2019-04-21T14:01:15.967Z,9.20
2019-04-21T14:03:47.287Z,8.30
2019-04-21T14:06:18.481Z,9.20
2019-04-21T14:08:50.605Z,8.68
2019-04-21T14:11:20.550Z,8.85
2019-04-21T14:13:50.711Z,8.35
2019-04-21T14:16:22.157Z,9.20
2019-04-21T14:18:52.653Z,8.63
2019-04-21T14:21:23.200Z,8.88
2019-04-21T14:23:54.555Z,9.43
2019-04-21T14:26:26.825Z,8.40
2019-04-21T14:28:57.094Z,9.13
2019-04-21T14:31:28.409Z,9.33
2019-04-21T14:33:59.688Z,8.87
2019-04-21T14:36:30.697Z,8.50
2019-04-21T14:39:00.973Z,8.45
2019-04-21T14:41:32.483Z,8.50
2019-04-21T14:44:03.179Z,9.35
2019-04-21T14:46:39.516Z,9.23
2019-04-21T14:49:41.566Z,9.20
2019-04-21T14:52:21.206Z,8.95
2019-04-21T14:54:54.497Z,8.30
2019-04-21T14:57:25.163Z,9.50
2019-04-21T14:59:55.493Z,9.13
2019-04-21T15:02:25.819Z,8.90
2019-04-21T15:04:55.926Z,8.98
2019-04-21T15:07:27.475Z,8.68
2019-04-21T15:10:04.789Z,7.90
2019-04-21T15:12:30.011Z,8.78
2019-04-21T15:15:00.311Z,10.82
2019-04-21T15:17:31.630Z,8.38
2019-04-21T15:20:06.628Z,9.03
2019-04-21T15:22:34.566Z,8.98
2019-04-21T15:25:05.853Z,8.33
2019-04-21T15:27:36.925Z,8.60
2019-04-21T15:30:09.142Z,8.13
2019-04-21T15:32:40.240Z,8.15
2019-04-21T15:35:11.104Z,8.10
2019-04-21T15:37:42.068Z,7.78
2019-04-21T15:40:21.947Z,8.00
2019-04-21T15:42:44.379Z,7.53
2019-04-21T15:45:14.837Z,8.00
2019-04-21T15:47:46.188Z,7.22
2019-04-21T15:50:19.420Z,7.70
2019-04-21T15:52:49.796Z,7.47
2019-04-21T15:55:39.228Z,7.85
2019-04-21T15:58:20.608Z,7.53
2019-04-21T16:00:56.455Z,7.20
2019-04-21T16:03:26.855Z,7.50
2019-04-21T16:05:57.185Z,7.22
2019-04-21T16:08:27.339Z,7.08
2019-04-21T16:11:01.867Z,7.67
2019-04-21T16:13:29.931Z,8.10
2019-04-21T16:16:00.326Z,6.90
2019-04-21T16:18:32.001Z,7.42
2019-04-21T16:21:04.112Z,7.00
2019-04-21T16:23:34.516Z,6.92
2019-04-21T16:26:04.789Z,7.03
2019-04-21T16:28:35.213Z,7.50
2019-04-21T16:31:06.744Z,7.20
2019-04-21T16:33:37.058Z,6.60
2019-04-21T16:36:10.334Z,6.72
2019-04-21T16:38:39.642Z,6.75
2019-04-21T16:41:12.012Z,6.28
2019-04-21T16:43:43.026Z,6.42
2019-04-21T16:46:13.693Z,7.80
2019-04-21T16:48:44.131Z,7.65
2019-04-21T16:51:15.416Z,7.62
2019-04-21T16:53:53.148Z,8.10
2019-04-21T16:56:28.940Z,7.53
2019-04-21T16:59:06.399Z,7.22
2019-04-21T17:01:36.680Z,7.30
2019-04-21T17:04:06.824Z,8.08
2019-04-21T17:06:38.289Z,8.00
2019-04-21T17:09:08.853Z,7.70
2019-04-21T17:11:40.126Z,7.03
2019-04-21T17:14:27.230Z,7.20
2019-04-21T17:17:12.639Z,7.50
2019-04-21T17:19:23.241Z,7.20
2019-04-21T17:21:47.543Z,6.97
2019-04-21T17:24:18.120Z,6.95
2019-04-21T17:26:49.578Z,7.53
2019-04-21T17:29:20.853Z,6.70
2019-04-21T17:31:51.078Z,6.75
2019-04-21T17:34:24.946Z,6.90
2019-04-21T17:36:53.336Z,7.75
2019-04-21T17:39:24.818Z,7.30
2019-04-21T17:42:05.234Z,7.00
2019-04-21T17:44:27.731Z,7.12
2019-04-21T17:47:02.042Z,6.85
2019-04-21T17:49:31.271Z,7.05
2019-04-21T17:52:25.514Z,6.85
2019-04-21T17:55:25.024Z,7.05
2019-04-21T17:58:05.121Z,7.08
2019-04-21T18:00:57.714Z,7.55
2019-04-21T18:03:27.607Z,8.40
2019-04-21T18:05:43.563Z,8.20
2019-04-21T18:08:18.474Z,8.20
2019-04-21T18:10:43.971Z,6.90
2019-04-21T18:13:09.913Z,7.10
2019-04-21T18:15:47.106Z,6.60
2019-04-21T18:18:08.606Z,6.80
2019-04-21T18:20:41.841Z,6.43
2019-04-21T18:23:37.656Z,6.30
2019-04-21T18:26:02.923Z,6.30
2019-04-21T18:28:28.470Z,5.90
2019-04-21T18:31:04.670Z,5.60
2019-04-21T18:33:40.504Z,6.00
2019-04-21T18:36:31.787Z,6.57
2019-04-21T18:39:30.034Z,6.97
2019-04-21T18:42:09.404Z,6.77
2019-04-21T18:45:20.745Z,7.10
2019-04-21T18:47:50.009Z,6.80
2019-04-21T18:50:48.771Z,6.60
2019-04-21T18:53:35.164Z,7.33
2019-04-21T18:55:57.539Z,7.77
2019-04-21T18:58:22.166Z,7.30
2019-04-21T19:00:58.308Z,7.70
2019-04-21T19:03:33.341Z,7.17
2019-04-21T19:06:05.165Z,7.63
2019-04-21T19:08:51.253Z,6.60
2019-04-21T19:11:19.330Z,6.43
2019-04-21T19:16:53.986Z,10.20
2019-04-21T19:21:50.560Z,12.83
2019-04-21T19:24:24.346Z,11.90
2019-04-21T19:31:54.713Z,10.70
2019-04-21T19:34:18.650Z,10.13
2019-04-21T19:36:49.200Z,10.23
2019-04-21T19:39:25.953Z,10.10
2019-04-21T19:41:58.625Z,11.37
2019-04-21T19:44:36.590Z,10.73
2019-04-21T19:47:04.145Z,13.73
2019-04-21T19:49:45.711Z,10.23
2019-04-21T19:52:02.942Z,9.50
2019-04-21T19:54:32.053Z,9.67
2019-04-21T19:56:56.269Z,9.13
2019-04-21T19:59:36.164Z,8.60
2019-04-21T20:02:00.271Z,9.37
2019-04-21T20:04:40.713Z,9.27
2019-04-21T20:07:22.999Z,10.67
2019-04-21T20:10:03.499Z,14.90
2019-04-21T20:12:39.774Z,16.67
2019-04-21T20:15:20.222Z,14.90
2019-04-21T20:17:37.698Z,13.47
2019-04-21T20:19:54.128Z,12.00
2019-04-21T20:22:32.921Z,13.23
2019-04-21T20:25:05.950Z,12.27
2019-04-21T20:27:38.659Z,10.20
2019-04-21T20:30:21.633Z,9.93
2019-04-21T20:33:01.579Z,11.00
2019-04-21T20:35:35.196Z,11.00
2019-04-21T20:37:55.070Z,10.07
2019-04-21T20:40:19.623Z,9.80
2019-04-21T20:43:07.161Z,9.90
2019-04-21T20:45:38.360Z,9.53
2019-04-21T20:47:53.157Z,9.53
2019-04-21T20:50:33.720Z,8.80
2019-04-21T20:53:13.213Z,9.17
2019-04-21T20:55:39.491Z,9.63
2019-04-21T20:58:06.765Z,9.00
2019-04-21T21:00:55.735Z,9.33
2019-04-21T21:03:18.131Z,10.43
2019-04-21T21:05:42.525Z,9.50
2019-04-21T21:10:53.767Z,11.53
2019-04-21T21:13:31.113Z,10.70
2019-04-21T21:16:12.077Z,10.80
2019-04-21T21:18:53.339Z,10.77
2019-04-21T21:21:04.644Z,10.70
2019-04-21T21:23:39.940Z,10.77
2019-04-21T21:26:11.488Z,10.63
2019-04-21T21:28:32.832Z,10.60
2019-04-21T21:31:12.954Z,11.80
2019-04-21T21:33:58.857Z,11.57
2019-04-21T21:36:19.254Z,11.90
2019-04-21T21:38:54.626Z,11.50
2019-04-21T21:41:15.335Z,12.27
2019-04-21T21:43:39.162Z,11.00
2019-04-21T21:46:24.883Z,11.70
2019-04-21T21:48:53.621Z,11.40
2019-04-21T21:51:21.404Z,12.00
2019-04-21T21:53:46.087Z,11.10
2019-04-21T21:56:21.027Z,11.43
2019-04-21T21:58:51.999Z,11.27
2019-04-21T22:01:32.721Z,10.83
2019-04-21T22:04:04.904Z,11.90
2019-04-21T22:06:39.962Z,11.03
2019-04-21T22:08:58.786Z,10.57
2019-04-21T22:11:29.771Z,11.20
2019-04-21T22:14:04.321Z,10.80
2019-04-21T22:16:46.619Z,10.60
2019-04-21T22:19:20.248Z,10.70
2019-04-21T22:21:56.616Z,10.70
2019-04-21T22:24:20.330Z,10.80
2019-04-21T22:26:40.990Z,10.30
2019-04-21T22:29:11.809Z,10.37
2019-04-21T22:31:44.611Z,11.50
2019-04-21T22:34:18.033Z,11.43
2019-04-21T22:36:58.994Z,10.97
2019-04-21T22:39:43.428Z,11.67
2019-04-21T22:42:04.213Z,10.77
2019-04-21T22:44:24.741Z,11.40
2019-04-21T22:47:07.520Z,11.00
2019-04-21T22:49:26.731Z,10.43
2019-04-21T22:52:00.730Z,10.53
2019-04-21T22:54:34.185Z,10.83
2019-04-21T22:57:07.288Z,11.13
2019-04-21T22:59:34.148Z,10.80
2019-04-21T23:02:13.618Z,11.50
2019-04-21T23:04:45.141Z,12.27
2019-04-21T23:07:15.122Z,11.83
2019-04-21T23:09:43.165Z,11.83
2019-04-21T23:12:24.020Z,12.27
2019-04-21T23:14:57.195Z,11.83
2019-04-21T23:17:32.348Z,11.30
2019-04-21T23:20:10.289Z,11.93
2019-04-21T23:22:51.454Z,12.27
2019-04-21T23:25:15.453Z,11.73
2019-04-21T23:27:46.882Z,11.90
2019-04-21T23:30:26.162Z,11.50
2019-04-21T23:32:46.328Z,11.30
2019-04-21T23:35:18.066Z,11.97
2019-04-21T23:37:44.667Z,11.93
2019-04-21T23:40:17.468Z,11.97
2019-04-21T23:42:45.407Z,12.17
2019-04-21T23:45:18.353Z,11.87
2019-04-21T23:48:01.423Z,11.53
2019-04-21T23:50:33.244Z,11.57
2019-04-21T23:52:53.023Z,11.90
2019-04-21T23:55:23.395Z,12.17
2019-04-21T23:58:04.968Z,12.03
